createdAt,value
2023-01-01T00:00:07.398Z,101282.91
2023-01-01T00:01:41.711Z,101291.34
2023-01-01T00:03:13.746Z,101286.94
2023-01-01T00:04:45.846Z,101304.00
2023-01-01T00:06:18.084Z,101300.66
2023-01-01T00:07:50.087Z,101300.75
2023-01-01T00:09:40.871Z,101299.88
2023-01-01T00:11:13.016Z,101308.56
2023-01-01T00:12:45.000Z,101300.13
2023-01-01T00:14:17.103Z,101306.09
2023-01-01T00:15:49.069Z,101305.22
2023-01-01T00:19:00.106Z,101293.16
2023-01-01T00:20:35.463Z,101300.28
2023-01-01T00:22:43.714Z,101302.75
2023-01-01T00:23:59.720Z,101310.19
2023-01-01T00:25:32.899Z,101316.72
2023-01-01T00:27:04.943Z,101314.13
2023-01-01T00:28:36.906Z,101319.28
2023-01-01T00:30:10.477Z,101309.19
2023-01-01T00:31:42.436Z,101319.72
2023-01-01T00:33:14.522Z,101306.56
2023-01-01T00:34:46.649Z,101317.72
2023-01-01T00:36:19.575Z,101310.22
2023-01-01T00:37:51.897Z,101312.03
2023-01-01T00:39:23.950Z,101317.19
2023-01-01T00:40:55.899Z,101306.00
2023-01-01T00:42:28.072Z,101312.91
2023-01-01T00:44:00.139Z,101314.59
2023-01-01T00:45:32.282Z,101312.22
2023-01-01T00:47:04.644Z,101307.03
2023-01-01T00:48:36.647Z,101315.69
2023-01-01T00:50:09.024Z,101308.94
2023-01-01T00:51:43.946Z,101308.06
2023-01-01T00:53:15.978Z,101307.63
2023-01-01T00:54:48.008Z,101306.47
2023-01-01T00:56:20.575Z,101309.03
2023-01-01T00:57:52.588Z,101309.03
2023-01-01T00:59:28.705Z,101313.22
2023-01-01T01:01:01.321Z,101307.44
2023-01-01T01:02:33.710Z,101317.88
2023-01-01T01:04:09.757Z,101320.69
2023-01-01T01:05:41.815Z,101315.34
2023-01-01T01:07:13.919Z,101320.34
2023-01-01T01:08:46.783Z,101312.75
2023-01-01T01:10:21.378Z,101309.25
2023-01-01T01:12:18.142Z,101309.13
2023-01-01T01:13:47.334Z,101306.56
2023-01-01T01:15:19.861Z,101307.25
2023-01-01T01:16:51.978Z,101308.03
2023-01-01T01:18:24.183Z,101306.25
2023-01-01T01:19:56.196Z,101300.34
2023-01-01T01:21:29.866Z,101300.50
2023-01-01T01:23:02.078Z,101307.25
2023-01-01T01:24:34.079Z,101300.50
2023-01-01T01:26:13.826Z,101296.47
2023-01-01T01:27:45.779Z,101298.66
2023-01-01T01:29:17.952Z,101303.84
2023-01-01T01:30:50.042Z,101298.66
2023-01-01T01:32:22.193Z,101306.25
2023-01-01T01:33:54.314Z,101301.91
2023-01-01T01:35:30.180Z,101295.09
2023-01-01T01:37:02.332Z,101301.16
2023-01-01T01:38:34.373Z,101301.16
2023-01-01T01:40:07.111Z,101298.66
2023-01-01T01:41:39.351Z,101296.78
2023-01-01T01:43:44.911Z,101304.47
2023-01-01T01:45:17.260Z,101304.06
2023-01-01T01:46:49.310Z,101303.75
2023-01-01T01:48:21.989Z,101295.16
2023-01-01T01:50:08.012Z,101300.41
2023-01-01T01:51:40.726Z,101293.41
2023-01-01T01:53:30.321Z,101298.59
2023-01-01T01:55:04.651Z,101298.47
2023-01-01T01:57:00.507Z,101306.19
2023-01-01T01:58:33.373Z,101298.34
2023-01-01T02:00:10.894Z,101296.53
2023-01-01T02:01:43.866Z,101288.75
2023-01-01T02:03:25.093Z,101297.22
2023-01-01T02:04:57.893Z,101297.00
2023-01-01T02:06:32.389Z,101297.78
2023-01-01T02:08:05.572Z,101297.88
2023-01-01T02:09:37.768Z,101293.50
2023-01-01T02:11:09.701Z,101297.88
2023-01-01T02:12:42.011Z,101292.09
2023-01-01T02:14:13.967Z,101296.53
2023-01-01T02:16:13.040Z,101293.41
2023-01-01T02:18:12.287Z,101285.75
2023-01-01T02:20:13.987Z,101285.13
2023-01-01T02:22:11.315Z,101291.97
2023-01-01T02:23:53.871Z,101294.53
2023-01-01T02:25:33.163Z,101298.84
2023-01-01T02:27:25.665Z,101299.81
2023-01-01T02:29:26.002Z,101292.97
2023-01-01T02:30:58.820Z,101300.56
2023-01-01T02:32:50.732Z,101294.84
2023-01-01T02:34:27.323Z,101301.44
2023-01-01T02:36:01.827Z,101306.53
2023-01-01T02:37:33.980Z,101307.31
2023-01-01T02:39:07.594Z,101301.44
2023-01-01T02:40:41.104Z,101311.03
2023-01-01T02:42:13.613Z,101299.78
2023-01-01T02:43:46.521Z,101308.22
2023-01-01T02:45:18.847Z,101295.44
2023-01-01T02:46:50.883Z,101301.50
2023-01-01T02:48:39.866Z,101305.16
2023-01-01T02:52:02.345Z,101302.31
2023-01-01T02:53:37.787Z,101302.00
2023-01-01T02:55:51.546Z,101297.69
2023-01-01T02:57:39.220Z,101297.66
2023-01-01T02:59:59.935Z,101296.03
2023-01-01T03:02:01.658Z,101290.69
2023-01-01T03:03:47.493Z,101300.00
2023-01-01T03:06:10.208Z,101294.09
2023-01-01T03:08:11.066Z,101296.72
2023-01-01T03:09:49.236Z,101286.50
2023-01-01T03:11:24.237Z,101289.09
2023-01-01T03:13:14.968Z,101286.00
2023-01-01T03:15:01.749Z,101287.69
2023-01-01T03:16:48.900Z,101287.00
2023-01-01T03:18:26.483Z,101282.81
2023-01-01T03:20:00.462Z,101282.84
2023-01-01T03:21:32.510Z,101284.38
2023-01-01T03:23:08.429Z,101285.22
2023-01-01T03:24:45.089Z,101283.50
2023-01-01T03:26:18.915Z,101282.59
2023-01-01T03:27:54.633Z,101278.31
2023-01-01T03:29:29.897Z,101289.59
2023-01-01T03:31:02.191Z,101280.19
2023-01-01T03:33:01.342Z,101279.50
2023-01-01T03:34:38.092Z,101280.34
2023-01-01T03:36:13.623Z,101276.97
2023-01-01T03:37:48.884Z,101282.09
2023-01-01T03:39:31.929Z,101280.25
2023-01-01T03:41:11.070Z,101283.53
2023-01-01T03:42:46.569Z,101281.91
2023-01-01T03:44:33.365Z,101282.84
2023-01-01T03:46:06.342Z,101279.44
2023-01-01T03:47:38.620Z,101277.69
2023-01-01T03:49:12.332Z,101277.72
2023-01-01T03:50:53.299Z,101279.72
2023-01-01T03:52:41.368Z,101282.97
2023-01-01T03:54:46.082Z,101281.34
2023-01-01T03:56:33.948Z,101278.03
2023-01-01T03:58:26.882Z,101281.38
2023-01-01T04:00:09.761Z,101283.06
2023-01-01T04:01:45.853Z,101278.63
2023-01-01T04:03:36.122Z,101282.91
2023-01-01T04:05:11.453Z,101284.47
2023-01-01T04:06:43.484Z,101286.91
2023-01-01T04:08:16.393Z,101284.38
2023-01-01T04:09:50.903Z,101284.38
2023-01-01T04:11:45.053Z,101289.53
2023-01-01T04:13:17.088Z,101292.78
2023-01-01T04:14:49.162Z,101298.53
2023-01-01T04:16:21.215Z,101297.47
2023-01-01T04:17:54.211Z,101291.25
2023-01-01T04:19:29.611Z,101297.28
2023-01-01T04:21:01.731Z,101295.41
2023-01-01T04:22:34.066Z,101298.84
2023-01-01T04:24:06.540Z,101306.56
2023-01-01T04:25:38.638Z,101295.50
2023-01-01T04:27:10.694Z,101293.00
2023-01-01T04:28:43.255Z,101295.59
2023-01-01T04:30:15.765Z,101298.16
2023-01-01T04:31:48.084Z,101293.78
2023-01-01T04:33:20.171Z,101295.31
2023-01-01T04:36:23.980Z,101290.13
2023-01-01T04:37:56.064Z,101294.44
2023-01-01T04:39:28.032Z,101297.00
2023-01-01T04:41:01.461Z,101292.69
2023-01-01T04:42:33.702Z,101295.94
2023-01-01T04:44:05.898Z,101295.16
2023-01-01T04:45:38.081Z,101300.25
2023-01-01T04:47:10.223Z,101296.53
2023-01-01T04:48:42.235Z,101295.59
2023-01-01T04:50:14.484Z,101299.84
2023-01-01T04:51:46.752Z,101294.75
2023-01-01T04:53:18.827Z,101298.13
2023-01-01T04:54:50.825Z,101299.94
2023-01-01T04:56:23.548Z,101306.72
2023-01-01T04:57:55.568Z,101303.25
2023-01-01T04:59:27.569Z,101298.13
2023-01-01T05:00:59.768Z,101293.00
2023-01-01T05:02:31.916Z,101297.19
2023-01-01T05:04:04.125Z,101297.13
2023-01-01T05:05:36.353Z,101296.00
2023-01-01T05:07:10.701Z,101299.41
2023-01-01T05:08:46.088Z,101296.78
2023-01-01T05:10:18.099Z,101301.78
2023-01-01T05:11:50.184Z,101300.97
2023-01-01T05:13:22.219Z,101297.56
2023-01-01T05:14:54.328Z,101298.34
2023-01-01T05:16:29.058Z,101296.72
2023-01-01T05:18:01.381Z,101298.34
2023-01-01T05:19:33.415Z,101289.72
2023-01-01T05:21:08.276Z,101295.88
2023-01-01T05:22:40.352Z,101292.44
2023-01-01T05:24:12.544Z,101289.88
2023-01-01T05:25:44.856Z,101289.06
2023-01-01T05:27:16.973Z,101290.00
2023-01-01T05:28:49.402Z,101286.59
2023-01-01T05:30:23.726Z,101283.22
2023-01-01T05:31:55.829Z,101286.66
2023-01-01T05:33:28.236Z,101280.69
2023-01-01T05:35:00.341Z,101285.81
2023-01-01T05:36:38.967Z,101292.00
2023-01-01T05:38:11.294Z,101291.06
2023-01-01T05:39:43.214Z,101287.78
2023-01-01T05:41:17.424Z,101287.09
2023-01-01T05:42:50.303Z,101292.13
2023-01-01T05:44:22.333Z,101294.66
2023-01-01T05:46:04.934Z,101294.06
2023-01-01T05:47:36.970Z,101293.00
2023-01-01T05:49:12.048Z,101295.00
2023-01-01T05:50:44.061Z,101291.44
2023-01-01T05:52:17.549Z,101295.75
2023-01-01T05:53:52.001Z,101301.72
2023-01-01T05:55:23.997Z,101290.50
2023-01-01T05:56:55.954Z,101295.69
2023-01-01T05:58:29.394Z,101298.22
2023-01-01T06:00:01.369Z,101290.50
2023-01-01T06:01:33.496Z,101299.94
2023-01-01T06:03:05.519Z,101300.78
2023-01-01T06:04:37.656Z,101305.03
2023-01-01T06:06:12.443Z,101310.31
2023-01-01T06:07:48.348Z,101313.56
2023-01-01T06:09:20.863Z,101304.03
2023-01-01T06:10:58.973Z,101312.63
2023-01-01T06:12:31.017Z,101313.31
2023-01-01T06:14:03.157Z,101308.19
2023-01-01T06:15:35.248Z,101315.06
2023-01-01T06:17:07.324Z,101316.78
2023-01-01T06:18:39.697Z,101311.75
2023-01-01T06:20:11.793Z,101318.59
2023-01-01T06:21:43.858Z,101324.59
2023-01-01T06:23:16.975Z,101324.72
2023-01-01T06:24:49.015Z,101323.00
2023-01-01T06:26:24.475Z,101322.31
2023-01-01T06:27:56.556Z,101327.41
2023-01-01T06:29:28.510Z,101313.88
2023-01-01T06:31:04.797Z,101323.53
2023-01-01T06:32:36.913Z,101315.94
2023-01-01T06:34:09.350Z,101325.38
2023-01-01T06:35:41.406Z,101327.88
2023-01-01T06:37:13.398Z,101324.59
2023-01-01T06:38:47.865Z,101323.16
2023-01-01T06:40:20.112Z,101326.72
2023-01-01T06:41:52.310Z,101317.53
2023-01-01T06:43:24.342Z,101323.75
2023-01-01T06:44:56.442Z,101326.47
2023-01-01T06:46:31.451Z,101332.59
2023-01-01T06:48:03.647Z,101327.47
2023-01-01T06:49:35.599Z,101325.91
2023-01-01T06:51:12.849Z,101326.16
2023-01-01T06:52:44.906Z,101338.09
2023-01-01T06:54:16.968Z,101339.25
2023-01-01T06:55:55.013Z,101337.78
2023-01-01T06:57:29.127Z,101334.56
2023-01-01T06:59:01.806Z,101342.47
2023-01-01T07:00:33.888Z,101335.78
2023-01-01T07:02:05.986Z,101333.47
2023-01-01T07:03:38.933Z,101345.00
2023-01-01T07:05:10.991Z,101338.41
2023-01-01T07:06:43.417Z,101338.72
2023-01-01T07:08:15.505Z,101333.88
2023-01-01T07:09:47.579Z,101334.25
2023-01-01T07:11:19.664Z,101332.84
2023-01-01T07:14:24.800Z,101310.00
2023-01-01T07:15:57.423Z,101323.44
2023-01-01T07:17:29.541Z,101322.00
2023-01-01T07:19:01.710Z,101330.81
2023-01-01T07:20:33.698Z,101327.75
2023-01-01T07:22:05.697Z,101325.47
2023-01-01T07:23:37.916Z,101331.81
2023-01-01T07:25:12.219Z,101331.38
2023-01-01T07:26:45.465Z,101336.06
2023-01-01T07:28:17.659Z,101332.09
2023-01-01T07:29:49.677Z,101334.97
2023-01-01T07:31:21.901Z,101344.69
2023-01-01T07:32:57.192Z,101340.78
2023-01-01T07:34:29.152Z,101345.31
2023-01-01T07:36:01.128Z,101336.03
2023-01-01T07:37:33.507Z,101341.56
2023-01-01T07:39:05.534Z,101346.13
2023-01-01T07:40:37.620Z,101340.44
2023-01-01T07:43:43.496Z,101333.34
2023-01-01T07:45:15.552Z,101336.09
2023-01-01T07:46:47.604Z,101340.63
2023-01-01T07:48:19.626Z,101342.66
2023-01-01T07:49:52.353Z,101342.13
2023-01-01T07:51:24.423Z,101339.75
2023-01-01T07:52:56.624Z,101335.63
2023-01-01T07:54:28.627Z,101344.50
2023-01-01T07:56:00.642Z,101346.41
2023-01-01T07:57:32.789Z,101344.06
2023-01-01T07:59:05.718Z,101342.59
2023-01-01T08:00:37.865Z,101345.34
2023-01-01T08:02:13.242Z,101349.19
2023-01-01T08:03:46.044Z,101341.59
2023-01-01T08:05:24.284Z,101350.34
2023-01-01T08:06:58.548Z,101343.69
2023-01-01T08:08:30.598Z,101345.63
2023-01-01T08:10:03.441Z,101348.38
2023-01-01T08:11:35.468Z,101340.78
2023-01-01T08:13:09.097Z,101343.56
2023-01-01T08:14:44.177Z,101341.97
2023-01-01T08:16:16.288Z,101337.88
2023-01-01T08:17:51.162Z,101341.47
2023-01-01T08:19:23.146Z,101335.59
2023-01-01T08:20:55.631Z,101334.00
2023-01-01T08:22:28.032Z,101334.19
2023-01-01T08:24:00.030Z,101336.06
2023-01-01T08:25:32.127Z,101340.44
2023-01-01T08:27:04.276Z,101344.03
2023-01-01T08:28:36.625Z,101341.56
2023-01-01T08:30:10.628Z,101342.56
2023-01-01T08:31:42.674Z,101341.78
2023-01-01T08:33:14.773Z,101341.06
2023-01-01T08:34:46.928Z,101340.28
2023-01-01T08:36:21.120Z,101334.34
2023-01-01T08:37:53.183Z,101333.59
2023-01-01T08:39:25.377Z,101340.59
2023-01-01T08:40:59.668Z,101334.72
2023-01-01T08:42:31.730Z,101339.94
2023-01-01T08:44:03.952Z,101333.97
2023-01-01T08:45:35.975Z,101337.53
2023-01-01T08:47:19.435Z,101338.56
2023-01-01T08:48:51.558Z,101341.16
2023-01-01T08:50:23.611Z,101339.50
2023-01-01T08:51:55.606Z,101330.09
2023-01-01T08:53:31.788Z,101328.50
2023-01-01T08:55:03.909Z,101336.31
2023-01-01T08:56:41.244Z,101335.53
2023-01-01T08:58:13.283Z,101327.84
2023-01-01T08:59:45.275Z,101330.50
2023-01-01T09:01:17.544Z,101326.25
2023-01-01T09:02:49.922Z,101327.19
2023-01-01T09:04:25.002Z,101335.84
2023-01-01T09:05:57.234Z,101325.59
2023-01-01T09:07:29.394Z,101320.47
2023-01-01T09:09:01.514Z,101325.75
2023-01-01T09:10:33.607Z,101324.91
2023-01-01T09:12:06.693Z,101316.34
2023-01-01T09:13:38.645Z,101307.75
2023-01-01T09:15:16.465Z,101317.28
2023-01-01T09:16:48.735Z,101311.28
2023-01-01T09:18:20.784Z,101309.56
2023-01-01T09:19:52.795Z,101308.75
2023-01-01T09:21:24.840Z,101309.66
2023-01-01T09:23:00.997Z,101303.66
2023-01-01T09:24:36.175Z,101308.88
2023-01-01T09:26:09.632Z,101305.47
2023-01-01T09:27:41.561Z,101296.03
2023-01-01T09:29:13.864Z,101296.03
2023-01-01T09:30:45.867Z,101294.34
2023-01-01T09:32:19.148Z,101296.97
2023-01-01T09:33:51.669Z,101290.94
2023-01-01T09:35:23.739Z,101291.78
2023-01-01T09:36:55.954Z,101295.28
2023-01-01T09:38:27.986Z,101290.97
2023-01-01T09:40:00.237Z,101297.91
2023-01-01T09:41:44.127Z,101294.44
2023-01-01T09:43:36.295Z,101291.81
2023-01-01T09:45:23.597Z,101283.16
2023-01-01T09:46:59.906Z,101287.47
2023-01-01T09:48:32.065Z,101286.59
2023-01-01T09:50:08.354Z,101283.16
2023-01-01T09:51:48.748Z,101288.31
2023-01-01T09:53:32.699Z,101289.19
2023-01-01T09:55:14.431Z,101283.97
2023-01-01T09:58:21.673Z,101280.50
2023-01-01T09:59:53.869Z,101281.38
2023-01-01T10:01:35.165Z,101277.84
2023-01-01T10:03:13.322Z,101283.03
2023-01-01T10:04:48.437Z,101284.78
2023-01-01T10:06:27.093Z,101281.28
2023-01-01T10:08:23.259Z,101276.88
2023-01-01T10:10:01.923Z,101271.66
2023-01-01T10:12:02.824Z,101269.84
2023-01-01T10:13:37.225Z,101268.94
2023-01-01T10:15:24.512Z,101268.00
2023-01-01T10:16:57.943Z,101268.00
2023-01-01T10:18:33.798Z,101263.63
2023-01-01T10:20:24.131Z,101254.97
2023-01-01T10:22:01.128Z,101259.25
2023-01-01T10:23:42.078Z,101255.69
2023-01-01T10:25:29.523Z,101249.59
2023-01-01T10:27:04.779Z,101256.44
2023-01-01T10:28:48.491Z,101258.94
2023-01-01T10:30:23.110Z,101251.13
2023-01-01T10:31:57.191Z,101241.50
2023-01-01T10:33:29.277Z,101239.72
2023-01-01T10:35:03.338Z,101238.81
2023-01-01T10:36:35.843Z,101242.22
2023-01-01T10:38:08.365Z,101236.13
2023-01-01T10:39:41.038Z,101237.81
2023-01-01T10:41:19.573Z,101239.50
2023-01-01T10:42:56.771Z,101229.03
2023-01-01T10:44:36.911Z,101228.09
2023-01-01T10:46:13.783Z,101230.63
2023-01-01T10:48:19.781Z,101224.38
2023-01-01T10:49:59.230Z,101210.41
2023-01-01T10:51:31.270Z,101219.94
2023-01-01T10:53:03.277Z,101211.13
2023-01-01T10:54:38.110Z,101216.13
2023-01-01T10:56:18.676Z,101211.66
2023-01-01T10:57:50.681Z,101212.50
2023-01-01T10:59:40.606Z,101205.41
2023-01-01T11:01:18.628Z,101201.94
2023-01-01T11:03:16.843Z,101205.31
2023-01-01T11:04:49.835Z,101201.88
2023-01-01T11:06:24.130Z,101199.25
2023-01-01T11:07:56.158Z,101197.50
2023-01-01T11:09:32.029Z,101195.66
2023-01-01T11:11:04.701Z,101196.53
2023-01-01T11:13:04.190Z,101191.19
2023-01-01T11:14:38.920Z,101194.50
2023-01-01T11:16:11.747Z,101192.72
2023-01-01T11:17:43.822Z,101184.03
2023-01-01T11:19:25.551Z,101186.53
2023-01-01T11:20:58.956Z,101190.00
2023-01-01T11:22:44.149Z,101187.25
2023-01-01T11:26:14.337Z,101184.56
2023-01-01T11:27:46.835Z,101180.25
2023-01-01T11:29:31.262Z,101174.75
2023-01-01T11:31:19.326Z,101178.09
2023-01-01T11:32:55.834Z,101171.84
2023-01-01T11:34:32.183Z,101173.63
2023-01-01T11:36:05.387Z,101165.69
2023-01-01T11:37:39.284Z,101158.63
2023-01-01T11:39:27.139Z,101158.41
2023-01-01T11:41:07.371Z,101158.31
2023-01-01T11:42:46.497Z,101153.00
2023-01-01T11:44:30.702Z,101154.63
2023-01-01T11:46:10.412Z,101153.81
2023-01-01T11:47:43.377Z,101155.56
2023-01-01T11:49:23.439Z,101151.16
2023-01-01T11:51:02.578Z,101153.72
2023-01-01T11:52:48.409Z,101150.31
2023-01-01T11:56:02.135Z,101143.19
2023-01-01T11:57:34.691Z,101134.38
2023-01-01T11:59:17.142Z,101132.47
2023-01-01T12:01:01.397Z,101142.00
2023-01-01T12:02:37.665Z,101144.50
2023-01-01T12:04:35.849Z,101141.81
2023-01-01T12:06:21.544Z,101140.00
2023-01-01T12:07:54.290Z,101135.72
2023-01-01T12:09:30.756Z,101134.63
2023-01-01T12:11:13.339Z,101133.66
2023-01-01T12:12:57.928Z,101132.47
2023-01-01T12:14:37.745Z,101130.63
2023-01-01T12:16:33.103Z,101132.16
2023-01-01T12:18:23.321Z,101139.06
2023-01-01T12:20:12.041Z,101138.81
2023-01-01T12:21:50.731Z,101137.13
2023-01-01T12:23:24.694Z,101139.72
2023-01-01T12:24:57.633Z,101131.03
2023-01-01T12:27:11.080Z,101136.13
2023-01-01T12:30:19.015Z,101125.81
2023-01-01T12:32:12.342Z,101133.41
2023-01-01T12:34:05.618Z,101128.88
2023-01-01T12:35:47.861Z,101128.97
2023-01-01T12:37:19.865Z,101125.69
2023-01-01T12:38:51.955Z,101129.88
2023-01-01T12:40:48.532Z,101127.94
2023-01-01T12:42:29.604Z,101128.00
2023-01-01T12:44:26.055Z,101122.78
2023-01-01T12:46:03.927Z,101123.66
2023-01-01T12:47:38.901Z,101118.44
2023-01-01T12:49:25.823Z,101123.47
2023-01-01T12:51:08.430Z,101120.84
2023-01-01T12:53:11.458Z,101121.66
2023-01-01T12:55:01.680Z,101123.34
2023-01-01T12:56:54.377Z,101122.47
2023-01-01T12:58:29.009Z,101119.97
2023-01-01T13:00:02.834Z,101120.00
2023-01-01T13:01:35.917Z,101118.19
2023-01-01T13:03:33.202Z,101122.34
2023-01-01T13:05:10.966Z,101122.31
2023-01-01T13:06:57.725Z,101117.81
2023-01-01T13:08:29.756Z,101118.78
2023-01-01T13:10:10.782Z,101118.63
2023-01-01T13:11:45.469Z,101123.09
2023-01-01T13:13:18.259Z,101120.53
2023-01-01T13:14:50.995Z,101110.94
2023-01-01T13:16:38.346Z,101116.00
2023-01-01T13:18:13.721Z,101116.81
2023-01-01T13:19:45.795Z,101110.63
2023-01-01T13:21:17.984Z,101127.00
2023-01-01T13:22:50.003Z,101116.53
2023-01-01T13:24:24.291Z,101118.28
2023-01-01T13:26:17.725Z,101118.19
2023-01-01T13:28:03.706Z,101115.72
2023-01-01T13:29:43.850Z,101119.28
2023-01-01T13:31:15.897Z,101114.22
2023-01-01T13:34:36.942Z,101121.16
2023-01-01T13:36:09.080Z,101118.66
2023-01-01T13:37:43.286Z,101120.38
2023-01-01T13:39:54.387Z,101117.69
2023-01-01T13:41:44.418Z,101124.66
2023-01-01T13:43:21.479Z,101122.91
2023-01-01T13:44:53.576Z,101125.59
2023-01-01T13:46:30.191Z,101124.66
2023-01-01T13:48:20.611Z,101134.28
2023-01-01T13:50:12.543Z,101125.53
2023-01-01T13:52:07.505Z,101120.28
2023-01-01T13:54:00.129Z,101127.47
2023-01-01T13:55:40.414Z,101119.59
2023-01-01T13:57:42.934Z,101119.59
2023-01-01T13:59:32.410Z,101118.88
2023-01-01T14:01:13.501Z,101112.84
2023-01-01T14:02:49.603Z,101110.50
2023-01-01T14:04:30.111Z,101122.63
2023-01-01T14:06:07.282Z,101121.00
2023-01-01T14:07:53.585Z,101114.13
2023-01-01T14:09:25.875Z,101116.09
2023-01-01T14:11:00.922Z,101110.03
2023-01-01T14:12:32.917Z,101117.22
2023-01-01T14:14:24.889Z,101116.44
2023-01-01T14:16:07.660Z,101114.81
2023-01-01T14:17:42.089Z,101119.38
2023-01-01T14:19:16.374Z,101113.47
2023-01-01T14:20:51.783Z,101111.91
2023-01-01T14:22:24.365Z,101119.00
2023-01-01T14:23:58.809Z,101117.41
2023-01-01T14:25:30.917Z,101114.13
2023-01-01T14:27:06.039Z,101117.69
2023-01-01T14:28:38.607Z,101114.50
2023-01-01T14:30:20.260Z,101121.59
2023-01-01T14:31:52.697Z,101121.84
2023-01-01T14:33:28.355Z,101118.44
2023-01-01T14:35:02.158Z,101116.06
2023-01-01T14:36:34.203Z,101118.88
2023-01-01T14:38:42.797Z,101128.66
2023-01-01T14:40:29.442Z,101128.94
2023-01-01T14:42:05.525Z,101126.53
2023-01-01T14:43:44.061Z,101123.19
2023-01-01T14:45:18.359Z,101119.91
2023-01-01T14:46:53.218Z,101133.09
2023-01-01T14:48:25.742Z,101125.56
2023-01-01T14:50:06.309Z,101130.91
2023-01-01T14:51:44.853Z,101127.63
2023-01-01T14:53:20.882Z,101124.34
2023-01-01T14:54:53.054Z,101131.41
2023-01-01T14:56:36.964Z,101122.81
2023-01-01T14:58:11.826Z,101122.03
2023-01-01T14:59:48.657Z,101122.16
2023-01-01T15:01:26.159Z,101129.25
2023-01-01T15:03:06.976Z,101123.34
2023-01-01T15:04:39.554Z,101135.63
2023-01-01T15:06:18.715Z,101130.59
2023-01-01T15:08:01.008Z,101135.03
2023-01-01T15:09:37.188Z,101136.94
2023-01-01T15:11:09.348Z,101138.75
2023-01-01T15:12:43.336Z,101137.97
2023-01-01T15:14:36.616Z,101139.75
2023-01-01T15:16:19.554Z,101135.50
2023-01-01T15:17:51.846Z,101134.72
2023-01-01T15:19:24.206Z,101139.13
2023-01-01T15:20:56.520Z,101140.06
2023-01-01T15:22:32.080Z,101140.09
2023-01-01T15:24:16.756Z,101134.97
2023-01-01T15:25:48.885Z,101141.06
2023-01-01T15:27:32.269Z,101137.66
2023-01-01T15:29:08.420Z,101141.16
2023-01-01T15:30:40.510Z,101142.09
2023-01-01T15:32:15.663Z,101141.22
2023-01-01T15:33:49.225Z,101139.56
2023-01-01T15:35:33.126Z,101138.69
2023-01-01T15:38:38.770Z,101144.81
2023-01-01T15:40:13.637Z,101143.06
2023-01-01T15:41:50.951Z,101145.69
2023-01-01T15:43:25.760Z,101144.84
2023-01-01T15:45:20.626Z,101145.72
2023-01-01T15:46:53.171Z,101140.50
2023-01-01T15:48:38.078Z,101147.44
2023-01-01T15:50:21.462Z,101144.84
2023-01-01T15:52:03.936Z,101146.56
2023-01-01T15:54:00.353Z,101142.25
2023-01-01T15:55:34.145Z,101150.84
2023-01-01T15:57:23.604Z,101150.81
2023-01-01T15:59:19.183Z,101157.72
2023-01-01T16:00:56.970Z,101149.94
2023-01-01T16:02:37.010Z,101149.91
2023-01-01T16:04:27.928Z,101153.34
2023-01-01T16:06:00.860Z,101150.69
2023-01-01T16:07:32.918Z,101155.84
2023-01-01T16:09:04.926Z,101155.84
2023-01-01T16:10:37.497Z,101154.94
2023-01-01T16:12:09.765Z,101160.94
2023-01-01T16:13:42.415Z,101160.91
2023-01-01T16:15:17.082Z,101163.47
2023-01-01T16:16:57.123Z,101163.47
2023-01-01T16:18:34.496Z,101161.69
2023-01-01T16:20:07.107Z,101172.88
2023-01-01T16:21:39.180Z,101158.16
2023-01-01T16:23:11.575Z,101168.47
2023-01-01T16:24:45.530Z,101167.59
2023-01-01T16:26:17.667Z,101172.69
2023-01-01T16:27:49.835Z,101171.81
2023-01-01T16:29:21.911Z,101171.72
2023-01-01T16:30:54.213Z,101169.94
2023-01-01T16:32:26.220Z,101162.13
2023-01-01T16:34:00.840Z,101168.16
2023-01-01T16:35:33.328Z,101164.69
2023-01-01T16:37:05.380Z,101170.66
2023-01-01T16:38:40.098Z,101164.63
2023-01-01T16:40:12.321Z,101165.44
2023-01-01T16:41:45.052Z,101161.88
2023-01-01T16:43:18.303Z,101164.47
2023-01-01T16:44:50.568Z,101162.69
2023-01-01T16:46:22.625Z,101170.38
2023-01-01T16:47:55.666Z,101163.47
2023-01-01T16:49:27.718Z,101171.16
2023-01-01T16:50:59.831Z,101169.38
2023-01-01T16:52:33.877Z,101167.59
2023-01-01T16:54:06.276Z,101166.66
2023-01-01T16:55:38.283Z,101171.78
2023-01-01T16:57:10.449Z,101176.06
2023-01-01T16:58:52.997Z,101165.72
2023-01-01T17:00:28.346Z,101176.88
2023-01-01T17:02:00.538Z,101174.25
2023-01-01T17:03:32.789Z,101163.81
2023-01-01T17:05:05.230Z,101168.94
2023-01-01T17:06:38.989Z,101173.22
2023-01-01T17:08:11.100Z,101179.19
2023-01-01T17:09:43.544Z,101173.13
2023-01-01T17:11:17.421Z,101181.69
2023-01-01T17:12:49.480Z,101174.72
2023-01-01T17:14:21.471Z,101174.66
2023-01-01T17:15:59.608Z,101174.66
2023-01-01T17:17:31.781Z,101185.72
2023-01-01T17:19:19.104Z,101174.47
2023-01-01T17:20:51.995Z,101184.75
2023-01-01T17:22:26.757Z,101181.28
2023-01-01T17:24:00.036Z,101182.09
2023-01-01T17:25:32.284Z,101180.31
2023-01-01T17:27:04.381Z,101182.84
2023-01-01T17:28:36.846Z,101187.09
2023-01-01T17:30:09.550Z,101191.38
2023-01-01T17:31:41.714Z,101185.22
2023-01-01T17:33:13.793Z,101191.25
2023-01-01T17:34:45.813Z,101184.34
2023-01-01T17:36:18.284Z,101186.88
2023-01-01T17:37:50.405Z,101186.78
2023-01-01T17:39:22.461Z,101182.47
2023-01-01T17:40:54.692Z,101187.56
2023-01-01T17:42:26.827Z,101185.84
2023-01-01T17:43:58.898Z,101189.25
2023-01-01T17:45:30.928Z,101190.09
2023-01-01T17:47:02.970Z,101184.94
2023-01-01T17:48:35.100Z,101184.91
2023-01-01T17:50:07.736Z,101182.28
2023-01-01T17:51:39.936Z,101191.72
2023-01-01T17:53:14.309Z,101195.09
2023-01-01T17:54:46.514Z,101191.63
2023-01-01T17:56:19.640Z,101189.91
2023-01-01T17:57:54.813Z,101187.25
2023-01-01T17:59:26.869Z,101187.94
2023-01-01T18:01:32.271Z,101187.97
2023-01-01T18:03:04.506Z,101188.69
2023-01-01T18:04:36.917Z,101192.06
2023-01-01T18:06:09.199Z,101193.72
2023-01-01T18:07:41.256Z,101191.13
2023-01-01T18:09:14.577Z,101192.91
2023-01-01T18:10:56.388Z,101190.34
2023-01-01T18:12:28.495Z,101181.63
2023-01-01T18:14:02.408Z,101179.03
2023-01-01T18:15:37.929Z,101181.59
2023-01-01T18:17:12.903Z,101182.31
2023-01-01T18:18:45.028Z,101184.84
2023-01-01T18:20:18.521Z,101181.38
2023-01-01T18:21:50.507Z,101178.78
2023-01-01T18:23:22.612Z,101179.63
2023-01-01T18:24:54.764Z,101172.69
2023-01-01T18:26:30.309Z,101175.28
2023-01-01T18:28:02.386Z,101176.03
2023-01-01T18:29:34.545Z,101169.16
2023-01-01T18:31:08.488Z,101173.44
2023-01-01T18:32:40.598Z,101174.94
2023-01-01T18:34:12.745Z,101176.50
2023-01-01T18:35:44.896Z,101179.88
2023-01-01T18:37:20.422Z,101179.75
2023-01-01T18:39:16.011Z,101178.91
2023-01-01T18:41:00.406Z,101180.59